PWSweather.com
Personal Weather Stations
Station Observations
DW6359
Southwest Cambria, Cambria, WI 53923

Southwest CambriaCambria, WI 53923

Lat: 43.541194, Lon: -89.11275

Elevation: 945

Station Type: Davis Vantage Pro2

http://home.centurytel.net/weathercambria/wxcambria.html

High Low Average
Temperature 9.2°F-12.7°C -7.0°F-21.7°C 0.7°F-17.4°C
Dew Point -0.6°F-18.1°C -10.9°F-23.8°C -5.7°F-20.9°C
Winds 11.0 mph 17.7 kmh Calm Calm 4.0 mph NW6.4 kmh NW
Wind Gusts 10.0 mph16.1 kmh -- 1.0 mph1.6 kmh
Humidity 89% 62% 74%
Pressure 30.51 in1033.2 mb 30.40 in1029.5 mb -
Precipitation 0.00 in0.0 mm - -
Hour Temp Dew Point Humidity Winds Wind Gusts Pressure Precip Precip Rate Daily Precip Total
12:00 AM -1.0°F-18.3°C -6.7°F-21.5°C 76% 6.0 mph NW9.7 kmh NW -- 30.39 in1029.1 mb 0.00 in0.0 mm 0.00 in0.0 mm 0.00 in0.0 mm
12:05 AM -1.1°F-18.4°C -6.8°F-21.6°C 76% 5.0 mph NW8.0 kmh NW -- 30.39 in1029.1 mb 0.00 in0.0 mm 0.00 in0.0 mm 0.00 in0.0 mm
12:10 AM -1.2°F-18.4°C -6.9°F-21.6°C 76% 4.0 mph NW6.4 kmh NW 10.0 mph16.1 kmh 30.39 in1029.1 mb 0.00 in0.0 mm 0.00 in0.0 mm 0.00 in0.0 mm
12:15 AM -1.4°F-18.6°C -7.1°F-21.7°C 76% 4.0 mph NW6.4 kmh NW 10.0 mph16.1 kmh 30.39 in1029.1 mb 0.00 in0.0 mm 0.00 in0.0 mm 0.00 in0.0 mm
12:20 AM -1.4°F-18.6°C -7.1°F-21.7°C 76% 4.0 mph NW6.4 kmh NW -- 30.40 in1029.5 mb 0.00 in0.0 mm 0.00 in0.0 mm 0.00 in0.0 mm
12:25 AM -1.5°F-18.6°C -7.2°F-21.8°C 76% 3.0 mph NW4.8 kmh NW -- 30.39 in1029.1 mb 0.00 in0.0 mm 0.00 in0.0 mm 0.00 in0.0 mm
12:30 AM -1.6°F-18.7°C -7.3°F-21.8°C 76% 3.0 mph NW4.8 kmh NW -- 30.39 in1029.1 mb 0.00 in0.0 mm 0.00 in0.0 mm 0.00 in0.0 mm
12:35 AM -1.8°F-18.8°C -7.5°F-21.9°C 76% 5.0 mph NW8.0 kmh NW -- 30.39 in1029.1 mb 0.00 in0.0 mm 0.00 in0.0 mm 0.00 in0.0 mm
12:40 AM -2.0°F-18.9°C -7.4°F-21.9°C 77% 6.0 mph WNW9.7 kmh WNW -- 30.40 in1029.5 mb 0.00 in0.0 mm 0.00 in0.0 mm 0.00 in0.0 mm
12:45 AM -2.2°F-19.0°C -7.6°F-22.0°C 77% 4.0 mph NW6.4 kmh NW -- 30.39 in1029.1 mb 0.00 in0.0 mm 0.00 in0.0 mm 0.00 in0.0 mm
12:50 AM -2.3°F-19.1°C -7.7°F-22.1°C 77% 3.0 mph NW4.8 kmh NW -- 30.39 in1029.1 mb 0.00 in0.0 mm 0.00 in0.0 mm 0.00 in0.0 mm
12:55 AM -2.4°F-19.1°C -7.8°F-22.1°C 77% 6.0 mph NW9.7 kmh NW -- 30.40 in1029.5 mb 0.00 in0.0 mm 0.00 in0.0 mm 0.00 in0.0 mm
01:00 AM -2.4°F-19.1°C -7.8°F-22.1°C 77% 5.0 mph WNW8.0 kmh WNW 7.0 mph11.3 kmh 30.40 in1029.5 mb 0.00 in0.0 mm 0.00 in0.0 mm 0.00 in0.0 mm
01:05 AM -2.5°F-19.2°C -7.9°F-22.2°C 77% 3.0 mph NW4.8 kmh NW 7.0 mph11.3 kmh 30.40 in1029.5 mb 0.00 in0.0 mm 0.00 in0.0 mm 0.00 in0.0 mm
01:10 AM -2.6°F-19.2°C -8.0°F-22.2°C 77% 4.0 mph W6.4 kmh W -- 30.40 in1029.5 mb 0.00 in0.0 mm 0.00 in0.0 mm 0.00 in0.0 mm
01:15 AM -2.6°F-19.2°C -8.0°F-22.2°C 77% 3.0 mph WNW4.8 kmh WNW -- 30.40 in1029.5 mb 0.00 in0.0 mm 0.00 in0.0 mm 0.00 in0.0 mm
01:20 AM -2.8°F-19.3°C -8.2°F-22.3°C 77% 6.0 mph WNW9.7 kmh WNW -- 30.40 in1029.5 mb 0.00 in0.0 mm 0.00 in0.0 mm 0.00 in0.0 mm
01:25 AM -2.9°F-19.4°C -8.0°F-22.2°C 78% 4.0 mph WNW6.4 kmh WNW -- 30.40 in1029.5 mb 0.00 in0.0 mm 0.00 in0.0 mm 0.00 in0.0 mm
01:30 AM -3.0°F-19.4°C -8.1°F-22.3°C 78% 4.0 mph W6.4 kmh W -- 30.40 in1029.5 mb 0.00 in0.0 mm 0.00 in0.0 mm 0.00 in0.0 mm
01:35 AM -3.1°F-19.5°C -8.2°F-22.3°C 78% 5.0 mph NW8.0 kmh NW -- 30.40 in1029.5 mb 0.00 in0.0 mm 0.00 in0.0 mm 0.00 in0.0 mm
01:40 AM -3.3°F-19.6°C -8.4°F-22.4°C 78% 3.0 mph WNW4.8 kmh WNW -- 30.40 in1029.5 mb 0.00 in0.0 mm 0.00 in0.0 mm 0.00 in0.0 mm
01:45 AM -3.5°F-19.7°C -8.6°F-22.6°C 78% 3.0 mph WNW4.8 kmh WNW -- 30.41 in1029.8 mb 0.00 in0.0 mm 0.00 in0.0 mm 0.00 in0.0 mm
01:50 AM -3.5°F-19.7°C -8.6°F-22.6°C 78% 2.0 mph WNW3.2 kmh WNW 8.0 mph12.9 kmh 30.41 in1029.8 mb 0.00 in0.0 mm 0.00 in0.0 mm 0.00 in0.0 mm
01:55 AM -3.7°F-19.8°C -8.8°F-22.7°C 78% 4.0 mph NW6.4 kmh NW 8.0 mph12.9 kmh 30.41 in1029.8 mb 0.00 in0.0 mm 0.00 in0.0 mm 0.00 in0.0 mm
02:00 AM -3.7°F-19.8°C -8.5°F-22.5°C 79% 1.0 mph WNW1.6 kmh WNW -- 30.41 in1029.8 mb 0.00 in0.0 mm 0.00 in0.0 mm 0.00 in0.0 mm
02:05 AM -3.8°F-19.9°C -8.9°F-22.7°C 78% 3.0 mph W4.8 kmh W -- 30.41 in1029.8 mb 0.00 in0.0 mm 0.00 in0.0 mm 0.00 in0.0 mm
02:10 AM -3.7°F-19.8°C -8.5°F-22.5°C 79% 4.0 mph NW6.4 kmh NW -- 30.42 in1030.1 mb 0.00 in0.0 mm 0.00 in0.0 mm 0.00 in0.0 mm
02:15 AM -3.6°F-19.8°C -8.4°F-22.4°C 79% 3.0 mph NW4.8 kmh NW -- 30.41 in1029.8 mb 0.00 in0.0 mm 0.00 in0.0 mm 0.00 in0.0 mm
02:20 AM -3.6°F-19.8°C -8.4°F-22.4°C 79% 3.0 mph NW4.8 kmh NW -- 30.42 in1030.1 mb 0.00 in0.0 mm 0.00 in0.0 mm 0.00 in0.0 mm
02:25 AM -3.6°F-19.8°C -8.4°F-22.4°C 79% 3.0 mph NW4.8 kmh NW -- 30.42 in1030.1 mb 0.00 in0.0 mm 0.00 in0.0 mm 0.00 in0.0 mm
02:30 AM -3.7°F-19.8°C -8.5°F-22.5°C 79% 4.0 mph WNW6.4 kmh WNW -- 30.42 in1030.1 mb 0.00 in0.0 mm 0.00 in0.0 mm 0.00 in0.0 mm
02:35 AM -3.7°F-19.8°C -8.5°F-22.5°C 79% 6.0 mph NW9.7 kmh NW -- 30.42 in1030.1 mb 0.00 in0.0 mm 0.00 in0.0 mm 0.00 in0.0 mm
02:40 AM -3.8°F-19.9°C -8.6°F-22.6°C 79% 7.0 mph NW11.3 kmh NW 9.0 mph14.5 kmh 30.43 in1030.5 mb 0.00 in0.0 mm 0.00 in0.0 mm 0.00 in0.0 mm
02:45 AM -3.8°F-19.9°C -8.6°F-22.6°C 79% 9.0 mph NW14.5 kmh NW 9.0 mph14.5 kmh 30.43 in1030.5 mb 0.00 in0.0 mm 0.00 in0.0 mm 0.00 in0.0 mm
02:50 AM -3.9°F-19.9°C -8.7°F-22.6°C 79% 3.0 mph NW4.8 kmh NW -- 30.43 in1030.5 mb 0.00 in0.0 mm 0.00 in0.0 mm 0.00 in0.0 mm
02:55 AM -4.0°F-20.0°C -8.8°F-22.7°C 79% 6.0 mph NW9.7 kmh NW -- 30.43 in1030.5 mb 0.00 in0.0 mm 0.00 in0.0 mm 0.00 in0.0 mm
03:00 AM -4.0°F-20.0°C -8.8°F-22.7°C 79% 5.0 mph NW8.0 kmh NW -- 30.43 in1030.5 mb 0.00 in0.0 mm 0.00 in0.0 mm 0.00 in0.0 mm
03:05 AM -2.9°F-19.4°C -8.3°F-22.4°C 77% 7.0 mph NW11.3 kmh NW -- 30.43 in1030.5 mb 0.00 in0.0 mm 0.00 in0.0 mm 0.00 in0.0 mm
03:10 AM -2.9°F-19.4°C -8.3°F-22.4°C 77% 4.0 mph NW6.4 kmh NW -- 30.43 in1030.5 mb 0.00 in0.0 mm 0.00 in0.0 mm 0.00 in0.0 mm
03:15 AM -3.0°F-19.4°C -8.4°F-22.4°C 77% 7.0 mph NW11.3 kmh NW -- 30.43 in1030.5 mb 0.00 in0.0 mm 0.00 in0.0 mm 0.00 in0.0 mm
03:20 AM -3.0°F-19.4°C -8.4°F-22.4°C 77% 7.0 mph NW11.3 kmh NW -- 30.43 in1030.5 mb 0.00 in0.0 mm 0.00 in0.0 mm 0.00 in0.0 mm
03:25 AM -3.0°F-19.4°C -8.4°F-22.4°C 77% 4.0 mph NW6.4 kmh NW -- 30.44 in1030.8 mb 0.00 in0.0 mm 0.00 in0.0 mm 0.00 in0.0 mm
03:30 AM -3.0°F-19.4°C -8.4°F-22.4°C 77% 3.0 mph NW4.8 kmh NW 9.0 mph14.5 kmh 30.44 in1030.8 mb 0.00 in0.0 mm 0.00 in0.0 mm 0.00 in0.0 mm
03:35 AM -3.1°F-19.5°C -8.5°F-22.5°C 77% 5.0 mph NNW8.0 kmh NNW 9.0 mph14.5 kmh 30.44 in1030.8 mb 0.00 in0.0 mm 0.00 in0.0 mm 0.00 in0.0 mm
03:40 AM -3.1°F-19.5°C -8.5°F-22.5°C 77% 5.0 mph NW8.0 kmh NW -- 30.43 in1030.5 mb 0.00 in0.0 mm 0.00 in0.0 mm 0.00 in0.0 mm
03:45 AM -3.1°F-19.5°C -8.5°F-22.5°C 77% 5.0 mph NW8.0 kmh NW -- 30.43 in1030.5 mb 0.00 in0.0 mm 0.00 in0.0 mm 0.00 in0.0 mm
03:50 AM -3.1°F-19.5°C -8.5°F-22.5°C 77% 5.0 mph NW8.0 kmh NW -- 30.43 in1030.5 mb 0.00 in0.0 mm 0.00 in0.0 mm 0.00 in0.0 mm
03:55 AM -3.1°F-19.5°C -8.5°F-22.5°C 77% 6.0 mph NW9.7 kmh NW -- 30.43 in1030.5 mb 0.00 in0.0 mm 0.00 in0.0 mm 0.00 in0.0 mm
04:00 AM -3.2°F-19.6°C -8.3°F-22.4°C 78% 6.0 mph NW9.7 kmh NW -- 30.43 in1030.5 mb 0.00 in0.0 mm 0.00 in0.0 mm 0.00 in0.0 mm
04:05 AM -3.2°F-19.6°C -8.6°F-22.6°C 77% 9.0 mph NW14.5 kmh NW -- 30.43 in1030.5 mb 0.00 in0.0 mm 0.00 in0.0 mm 0.00 in0.0 mm
04:10 AM -3.4°F-19.7°C -8.8°F-22.7°C 77% 4.0 mph NW6.4 kmh NW -- 30.43 in1030.5 mb 0.00 in0.0 mm 0.00 in0.0 mm 0.00 in0.0 mm
04:15 AM -3.5°F-19.7°C -8.6°F-22.6°C 78% 5.0 mph NW8.0 kmh NW -- 30.43 in1030.5 mb 0.00 in0.0 mm 0.00 in0.0 mm 0.00 in0.0 mm
04:20 AM -3.6°F-19.8°C -8.7°F-22.6°C 78% 4.0 mph NW6.4 kmh NW 8.0 mph12.9 kmh 30.43 in1030.5 mb 0.00 in0.0 mm 0.00 in0.0 mm 0.00 in0.0 mm
04:25 AM -3.8°F-19.9°C -8.9°F-22.7°C 78% 4.0 mph NW6.4 kmh NW 8.0 mph12.9 kmh 30.43 in1030.5 mb 0.00 in0.0 mm 0.00 in0.0 mm 0.00 in0.0 mm
04:30 AM -3.9°F-19.9°C -9.0°F-22.8°C 78% 3.0 mph NW4.8 kmh NW -- 30.43 in1030.5 mb 0.00 in0.0 mm 0.00 in0.0 mm 0.00 in0.0 mm
04:35 AM -4.0°F-20.0°C -9.1°F-22.8°C 78% 6.0 mph NW9.7 kmh NW -- 30.43 in1030.5 mb 0.00 in0.0 mm 0.00 in0.0 mm 0.00 in0.0 mm
04:40 AM -4.0°F-20.0°C -9.1°F-22.8°C 78% 5.0 mph NW8.0 kmh NW -- 30.44 in1030.8 mb 0.00 in0.0 mm 0.00 in0.0 mm 0.00 in0.0 mm
04:45 AM -4.0°F-20.0°C -6.4°F-21.3°C 89% 5.0 mph NW8.0 kmh NW -- 30.44 in1030.8 mb 0.00 in0.0 mm 0.00 in0.0 mm 0.00 in0.0 mm
04:50 AM -4.0°F-20.0°C -9.1°F-22.8°C 78% 5.0 mph NW8.0 kmh NW -- 30.44 in1030.8 mb 0.00 in0.0 mm 0.00 in0.0 mm 0.00 in0.0 mm
04:55 AM -4.1°F-20.1°C -9.2°F-22.9°C 78% 5.0 mph NW8.0 kmh NW -- 30.44 in1030.8 mb 0.00 in0.0 mm 0.00 in0.0 mm 0.00 in0.0 mm
05:00 AM -4.2°F-20.1°C -9.0°F-22.8°C 79% 3.0 mph NW4.8 kmh NW -- 30.44 in1030.8 mb 0.00 in0.0 mm 0.00 in0.0 mm 0.00 in0.0 mm
05:05 AM -4.2°F-20.1°C -9.0°F-22.8°C 79% 3.0 mph WNW4.8 kmh WNW -- 30.44 in1030.8 mb 0.00 in0.0 mm 0.00 in0.0 mm 0.00 in0.0 mm
05:10 AM -4.2°F-20.1°C -9.0°F-22.8°C 79% 5.0 mph NW8.0 kmh NW 8.0 mph12.9 kmh 30.44 in1030.8 mb 0.00 in0.0 mm 0.00 in0.0 mm 0.00 in0.0 mm
05:15 AM -4.2°F-20.1°C -9.0°F-22.8°C 79% 5.0 mph NW8.0 kmh NW 8.0 mph12.9 kmh 30.44 in1030.8 mb 0.00 in0.0 mm 0.00 in0.0 mm 0.00 in0.0 mm
05:20 AM -4.2°F-20.1°C -9.0°F-22.8°C 79% 4.0 mph NW6.4 kmh NW -- 30.44 in1030.8 mb 0.00 in0.0 mm 0.00 in0.0 mm 0.00 in0.0 mm
05:25 AM -4.3°F-20.2°C -9.1°F-22.8°C 79% 4.0 mph NW6.4 kmh NW -- 30.44 in1030.8 mb 0.00 in0.0 mm 0.00 in0.0 mm 0.00 in0.0 mm
05:30 AM -4.4°F-20.2°C -9.2°F-22.9°C 79% 8.0 mph NW12.9 kmh NW -- 30.44 in1030.8 mb 0.00 in0.0 mm 0.00 in0.0 mm 0.00 in0.0 mm
05:35 AM -4.5°F-20.3°C -9.3°F-22.9°C 79% 4.0 mph NW6.4 kmh NW -- 30.44 in1030.8 mb 0.00 in0.0 mm 0.00 in0.0 mm 0.00 in0.0 mm
05:40 AM -4.5°F-20.3°C -9.3°F-22.9°C 79% 3.0 mph NW4.8 kmh NW -- 30.44 in1030.8 mb 0.00 in0.0 mm 0.00 in0.0 mm 0.00 in0.0 mm
05:45 AM -4.6°F-20.3°C -9.4°F-23.0°C 79% 4.0 mph WNW6.4 kmh WNW -- 30.44 in1030.8 mb 0.00 in0.0 mm 0.00 in0.0 mm 0.00 in0.0 mm
05:50 AM -4.6°F-20.3°C -9.4°F-23.0°C 79% 5.0 mph NW8.0 kmh NW -- 30.45 in1031.2 mb 0.00 in0.0 mm 0.00 in0.0 mm 0.00 in0.0 mm
05:55 AM -4.6°F-20.3°C -9.4°F-23.0°C 79% 4.0 mph WNW6.4 kmh WNW -- 30.45 in1031.2 mb 0.00 in0.0 mm 0.00 in0.0 mm 0.00 in0.0 mm
06:00 AM -4.7°F-20.4°C -9.5°F-23.1°C 79% 3.0 mph WNW4.8 kmh WNW 8.0 mph12.9 kmh 30.45 in1031.2 mb 0.00 in0.0 mm 0.00 in0.0 mm 0.00 in0.0 mm
06:05 AM -4.9°F-20.5°C -9.5°F-23.1°C 80% 3.0 mph WNW4.8 kmh WNW 8.0 mph12.9 kmh 30.45 in1031.2 mb 0.00 in0.0 mm 0.00 in0.0 mm 0.00 in0.0 mm
06:10 AM -4.9°F-20.5°C -9.5°F-23.1°C 80% 3.0 mph NW4.8 kmh NW -- 30.46 in1031.5 mb 0.00 in0.0 mm 0.00 in0.0 mm 0.00 in0.0 mm
06:15 AM -5.0°F-20.6°C -9.6°F-23.1°C 80% 3.0 mph WNW4.8 kmh WNW -- 30.46 in1031.5 mb 0.00 in0.0 mm 0.00 in0.0 mm 0.00 in0.0 mm
06:20 AM -5.1°F-20.6°C -9.7°F-23.2°C 80% 2.0 mph WNW3.2 kmh WNW -- 30.46 in1031.5 mb 0.00 in0.0 mm 0.00 in0.0 mm 0.00 in0.0 mm
06:25 AM -5.1°F-20.6°C -9.7°F-23.2°C 80% 4.0 mph WNW6.4 kmh WNW -- 30.46 in1031.5 mb 0.00 in0.0 mm 0.00 in0.0 mm 0.00 in0.0 mm
06:30 AM -5.0°F-20.6°C -9.6°F-23.1°C 80% 5.0 mph WNW8.0 kmh WNW -- 30.46 in1031.5 mb 0.00 in0.0 mm 0.00 in0.0 mm 0.00 in0.0 mm
06:35 AM -5.0°F-20.6°C -9.6°F-23.1°C 80% 3.0 mph W4.8 kmh W -- 30.46 in1031.5 mb 0.00 in0.0 mm 0.00 in0.0 mm 0.00 in0.0 mm
06:40 AM -5.2°F-20.7°C -9.8°F-23.2°C 80% 4.0 mph W6.4 kmh W -- 30.46 in1031.5 mb 0.00 in0.0 mm 0.00 in0.0 mm 0.00 in0.0 mm
06:45 AM -5.2°F-20.7°C -9.8°F-23.2°C 80% 3.0 mph WNW4.8 kmh WNW -- 30.46 in1031.5 mb 0.00 in0.0 mm 0.00 in0.0 mm 0.00 in0.0 mm
06:50 AM -5.3°F-20.7°C -9.9°F-23.3°C 80% 4.0 mph W6.4 kmh W 7.0 mph11.3 kmh 30.46 in1031.5 mb 0.00 in0.0 mm 0.00 in0.0 mm 0.00 in0.0 mm
06:55 AM -5.2°F-20.7°C -9.5°F-23.1°C 81% 4.0 mph W6.4 kmh W 7.0 mph11.3 kmh 30.46 in1031.5 mb 0.00 in0.0 mm 0.00 in0.0 mm 0.00 in0.0 mm
07:00 AM -5.3°F-20.7°C -9.6°F-23.1°C 81% 2.0 mph W3.2 kmh W -- 30.46 in1031.5 mb 0.00 in0.0 mm 0.00 in0.0 mm 0.00 in0.0 mm
07:05 AM -5.3°F-20.7°C -9.6°F-23.1°C 81% 4.0 mph W6.4 kmh W -- 30.47 in1031.8 mb 0.00 in0.0 mm 0.00 in0.0 mm 0.00 in0.0 mm
07:10 AM -5.4°F-20.8°C -9.7°F-23.2°C 81% 3.0 mph W4.8 kmh W -- 30.47 in1031.8 mb 0.00 in0.0 mm 0.00 in0.0 mm 0.00 in0.0 mm
07:15 AM -5.5°F-20.8°C -9.8°F-23.2°C 81% 3.0 mph WNW4.8 kmh WNW -- 30.47 in1031.8 mb 0.00 in0.0 mm 0.00 in0.0 mm 0.00 in0.0 mm
07:20 AM -5.5°F-20.8°C -9.8°F-23.2°C 81% 3.0 mph WNW4.8 kmh WNW -- 30.47 in1031.8 mb 0.00 in0.0 mm 0.00 in0.0 mm 0.00 in0.0 mm
07:25 AM -6.8°F-21.6°C -10.6°F-23.7°C 83% 5.0 mph NW8.0 kmh NW -- 30.47 in1031.8 mb 0.00 in0.0 mm 0.00 in0.0 mm 0.00 in0.0 mm
07:30 AM -7.0°F-21.7°C -10.8°F-23.8°C 83% 4.0 mph WNW6.4 kmh WNW -- 30.48 in1032.2 mb 0.00 in0.0 mm 0.00 in0.0 mm 0.00 in0.0 mm
07:35 AM -5.6°F-20.9°C -9.9°F-23.3°C 81% 5.0 mph NW8.0 kmh NW -- 30.48 in1032.2 mb 0.00 in0.0 mm 0.00 in0.0 mm 0.00 in0.0 mm
07:40 AM -5.8°F-21.0°C -10.1°F-23.4°C 81% 5.0 mph W8.0 kmh W 6.0 mph9.7 kmh 30.48 in1032.2 mb 0.00 in0.0 mm 0.00 in0.0 mm 0.00 in0.0 mm
07:45 AM -5.9°F-21.1°C -10.2°F-23.4°C 81% 5.0 mph NW8.0 kmh NW 6.0 mph9.7 kmh 30.48 in1032.2 mb 0.00 in0.0 mm 0.00 in0.0 mm 0.00 in0.0 mm
07:50 AM -6.0°F-21.1°C -10.3°F-23.5°C 81% 4.0 mph WNW6.4 kmh WNW -- 30.48 in1032.2 mb 0.00 in0.0 mm 0.00 in0.0 mm 0.00 in0.0 mm
07:55 AM -6.2°F-21.2°C -10.5°F-23.6°C 81% 3.0 mph WNW4.8 kmh WNW -- 30.48 in1032.2 mb 0.00 in0.0 mm 0.00 in0.0 mm 0.00 in0.0 mm
08:00 AM -6.4°F-21.3°C -10.7°F-23.7°C 81% 4.0 mph WNW6.4 kmh WNW -- 30.48 in1032.2 mb 0.00 in0.0 mm 0.00 in0.0 mm 0.00 in0.0 mm
08:05 AM -6.6°F-21.4°C -10.9°F-23.8°C 81% 3.0 mph WNW4.8 kmh WNW -- 30.48 in1032.2 mb 0.00 in0.0 mm 0.00 in0.0 mm 0.00 in0.0 mm
08:10 AM -6.6°F-21.4°C -10.9°F-23.8°C 81% 3.0 mph WNW4.8 kmh WNW -- 30.48 in1032.2 mb 0.00 in0.0 mm 0.00 in0.0 mm 0.00 in0.0 mm
08:15 AM -6.5°F-21.4°C -10.5°F-23.6°C 82% 4.0 mph WNW6.4 kmh WNW -- 30.48 in1032.2 mb 0.00 in0.0 mm 0.00 in0.0 mm 0.00 in0.0 mm
08:20 AM -6.7°F-21.5°C -10.7°F-23.7°C 82% 2.0 mph WNW3.2 kmh WNW -- 30.48 in1032.2 mb 0.00 in0.0 mm 0.00 in0.0 mm 0.00 in0.0 mm
08:25 AM -6.7°F-21.5°C -10.7°F-23.7°C 82% 3.0 mph WNW4.8 kmh WNW -- 30.48 in1032.2 mb 0.00 in0.0 mm 0.00 in0.0 mm 0.00 in0.0 mm
08:30 AM -6.6°F-21.4°C -10.6°F-23.7°C 82% 3.0 mph WNW4.8 kmh WNW 5.0 mph8.0 kmh 30.48 in1032.2 mb 0.00 in0.0 mm 0.00 in0.0 mm 0.00 in0.0 mm
08:35 AM -6.4°F-21.3°C -10.4°F-23.6°C 82% 3.0 mph WNW4.8 kmh WNW 5.0 mph8.0 kmh 30.48 in1032.2 mb 0.00 in0.0 mm 0.00 in0.0 mm 0.00 in0.0 mm
08:40 AM -6.4°F-21.3°C -10.4°F-23.6°C 82% 3.0 mph WNW4.8 kmh WNW -- 30.48 in1032.2 mb 0.00 in0.0 mm 0.00 in0.0 mm 0.00 in0.0 mm
08:45 AM -6.5°F-21.4°C -10.5°F-23.6°C 82% 2.0 mph WNW3.2 kmh WNW -- 30.48 in1032.2 mb 0.00 in0.0 mm 0.00 in0.0 mm 0.00 in0.0 mm
08:50 AM -6.5°F-21.4°C -10.5°F-23.6°C 82% 4.0 mph WNW6.4 kmh WNW -- 30.48 in1032.2 mb 0.00 in0.0 mm 0.00 in0.0 mm 0.00 in0.0 mm
08:55 AM -6.6°F-21.4°C -10.6°F-23.7°C 82% 4.0 mph WNW6.4 kmh WNW -- 30.49 in1032.5 mb 0.00 in0.0 mm 0.00 in0.0 mm 0.00 in0.0 mm
09:00 AM -6.6°F-21.4°C -10.6°F-23.7°C 82% 3.0 mph WNW4.8 kmh WNW -- 30.49 in1032.5 mb 0.00 in0.0 mm 0.00 in0.0 mm 0.00 in0.0 mm
09:05 AM -6.7°F-21.5°C -10.7°F-23.7°C 82% 4.0 mph WNW6.4 kmh WNW -- 30.49 in1032.5 mb 0.00 in0.0 mm 0.00 in0.0 mm 0.00 in0.0 mm
09:10 AM -6.5°F-21.4°C -10.5°F-23.6°C 82% 3.0 mph WNW4.8 kmh WNW -- 30.49 in1032.5 mb 0.00 in0.0 mm 0.00 in0.0 mm 0.00 in0.0 mm
09:15 AM -6.2°F-21.2°C -10.2°F-23.4°C 82% 4.0 mph WNW6.4 kmh WNW -- 30.49 in1032.5 mb 0.00 in0.0 mm 0.00 in0.0 mm 0.00 in0.0 mm
09:20 AM -5.9°F-21.1°C -9.9°F-23.3°C 82% 3.0 mph WNW4.8 kmh WNW 5.0 mph8.0 kmh 30.50 in1032.8 mb 0.00 in0.0 mm 0.00 in0.0 mm 0.00 in0.0 mm
09:25 AM -5.6°F-20.9°C -9.6°F-23.1°C 82% 5.0 mph WNW8.0 kmh WNW 5.0 mph8.0 kmh 30.50 in1032.8 mb 0.00 in0.0 mm 0.00 in0.0 mm 0.00 in0.0 mm
09:30 AM -5.4°F-20.8°C -9.5°F-23.1°C 82% 2.0 mph WNW3.2 kmh WNW -- 30.50 in1032.8 mb 0.00 in0.0 mm 0.00 in0.0 mm 0.00 in0.0 mm
09:35 AM -5.2°F-20.7°C -9.5°F-23.1°C 81% 5.0 mph WNW8.0 kmh WNW -- 30.50 in1032.8 mb 0.00 in0.0 mm 0.00 in0.0 mm 0.00 in0.0 mm
09:40 AM -4.9°F-20.5°C -9.2°F-22.9°C 81% 5.0 mph WNW8.0 kmh WNW -- 30.50 in1032.8 mb 0.00 in0.0 mm 0.00 in0.0 mm 0.00 in0.0 mm
09:45 AM -4.7°F-20.4°C -9.0°F-22.8°C 81% 7.0 mph WNW11.3 kmh WNW -- 30.50 in1032.8 mb 0.00 in0.0 mm 0.00 in0.0 mm 0.00 in0.0 mm
09:50 AM -4.6°F-20.3°C -8.9°F-22.7°C 81% 5.0 mph W8.0 kmh W -- 30.50 in1032.8 mb 0.00 in0.0 mm 0.00 in0.0 mm 0.00 in0.0 mm
09:55 AM -4.8°F-20.4°C -9.4°F-23.0°C 80% 6.0 mph W9.7 kmh W -- 30.50 in1032.8 mb 0.00 in0.0 mm 0.00 in0.0 mm 0.00 in0.0 mm
10:00 AM -4.9°F-20.5°C -9.5°F-23.1°C 80% 5.0 mph W8.0 kmh W -- 30.50 in1032.8 mb 0.00 in0.0 mm 0.00 in0.0 mm 0.00 in0.0 mm
10:05 AM -4.9°F-20.5°C -9.5°F-23.1°C 80% 4.0 mph WSW6.4 kmh WSW -- 30.51 in1033.2 mb 0.00 in0.0 mm 0.00 in0.0 mm 0.00 in0.0 mm
10:10 AM -4.8°F-20.4°C -9.1°F-22.8°C 81% 5.0 mph WSW8.0 kmh WSW 7.0 mph11.3 kmh 30.51 in1033.2 mb 0.00 in0.0 mm 0.00 in0.0 mm 0.00 in0.0 mm
10:15 AM -4.6°F-20.3°C -8.9°F-22.7°C 81% 4.0 mph W6.4 kmh W 7.0 mph11.3 kmh 30.51 in1033.2 mb 0.00 in0.0 mm 0.00 in0.0 mm 0.00 in0.0 mm
10:20 AM -4.3°F-20.2°C -8.6°F-22.6°C 81% 5.0 mph W8.0 kmh W -- 30.51 in1033.2 mb 0.00 in0.0 mm 0.00 in0.0 mm 0.00 in0.0 mm
10:25 AM -3.7°F-19.8°C -8.0°F-22.2°C 81% 5.0 mph WNW8.0 kmh WNW -- 30.51 in1033.2 mb 0.00 in0.0 mm 0.00 in0.0 mm 0.00 in0.0 mm
10:30 AM -3.1°F-19.5°C -7.5°F-21.9°C 81% 5.0 mph WNW8.0 kmh WNW -- 30.51 in1033.2 mb 0.00 in0.0 mm 0.00 in0.0 mm 0.00 in0.0 mm
10:35 AM -2.8°F-19.3°C -7.4°F-21.9°C 80% 6.0 mph W9.7 kmh W -- 30.51 in1033.2 mb 0.00 in0.0 mm 0.00 in0.0 mm 0.00 in0.0 mm
10:40 AM -2.5°F-19.2°C -7.1°F-21.7°C 80% 4.0 mph W6.4 kmh W -- 30.51 in1033.2 mb 0.00 in0.0 mm 0.00 in0.0 mm 0.00 in0.0 mm
10:45 AM -2.2°F-19.0°C -7.1°F-21.7°C 79% 3.0 mph NW4.8 kmh NW -- 30.51 in1033.2 mb 0.00 in0.0 mm 0.00 in0.0 mm 0.00 in0.0 mm
10:50 AM -1.8°F-18.8°C -6.7°F-21.5°C 79% 5.0 mph W8.0 kmh W -- 30.51 in1033.2 mb 0.00 in0.0 mm 0.00 in0.0 mm 0.00 in0.0 mm
10:55 AM -1.6°F-18.7°C -6.5°F-21.4°C 79% 4.0 mph NW6.4 kmh NW -- 30.51 in1033.2 mb 0.00 in0.0 mm 0.00 in0.0 mm 0.00 in0.0 mm
11:00 AM -1.2°F-18.4°C -6.4°F-21.3°C 78% 3.0 mph WNW4.8 kmh WNW 7.0 mph11.3 kmh 30.51 in1033.2 mb 0.00 in0.0 mm 0.00 in0.0 mm 0.00 in0.0 mm
11:05 AM -0.9°F-18.3°C -6.1°F-21.2°C 78% 5.0 mph NW8.0 kmh NW 7.0 mph11.3 kmh 30.51 in1033.2 mb 0.00 in0.0 mm 0.00 in0.0 mm 0.00 in0.0 mm
11:10 AM -0.5°F-18.1°C -5.7°F-20.9°C 78% 5.0 mph WNW8.0 kmh WNW -- 30.51 in1033.2 mb 0.00 in0.0 mm 0.00 in0.0 mm 0.00 in0.0 mm
11:15 AM -0.1°F-17.8°C -5.3°F-20.7°C 78% 1.0 mph WNW1.6 kmh WNW -- 30.51 in1033.2 mb 0.00 in0.0 mm 0.00 in0.0 mm 0.00 in0.0 mm
11:20 AM 0.2°F-17.7°C -5.3°F-20.7°C 77% 5.0 mph NW8.0 kmh NW -- 30.51 in1033.2 mb 0.00 in0.0 mm 0.00 in0.0 mm 0.00 in0.0 mm
11:25 AM 0.7°F-17.4°C -4.8°F-20.4°C 77% 6.0 mph NW9.7 kmh NW -- 30.51 in1033.2 mb 0.00 in0.0 mm 0.00 in0.0 mm 0.00 in0.0 mm
11:30 AM 1.1°F-17.2°C -4.4°F-20.2°C 77% 5.0 mph W8.0 kmh W -- 30.50 in1032.8 mb 0.00 in0.0 mm 0.00 in0.0 mm 0.00 in0.0 mm
11:35 AM 1.4°F-17.0°C -4.4°F-20.2°C 76% 5.0 mph NW8.0 kmh NW -- 30.51 in1033.2 mb 0.00 in0.0 mm 0.00 in0.0 mm 0.00 in0.0 mm
11:40 AM 1.8°F-16.8°C -4.0°F-20.0°C 76% 3.0 mph W4.8 kmh W -- 30.50 in1032.8 mb 0.00 in0.0 mm 0.00 in0.0 mm 0.00 in0.0 mm
11:45 AM 2.4°F-16.4°C -3.4°F-19.7°C 76% 4.0 mph NW6.4 kmh NW -- 30.50 in1032.8 mb 0.00 in0.0 mm 0.00 in0.0 mm 0.00 in0.0 mm
11:50 AM 2.7°F-16.3°C -3.4°F-19.7°C 75% 5.0 mph WNW8.0 kmh WNW 8.0 mph12.9 kmh 30.50 in1032.8 mb 0.00 in0.0 mm 0.00 in0.0 mm 0.00 in0.0 mm
11:55 AM 3.1°F-16.1°C -3.0°F-19.4°C 75% 2.0 mph NW3.2 kmh NW 8.0 mph12.9 kmh 30.50 in1032.8 mb 0.00 in0.0 mm 0.00 in0.0 mm 0.00 in0.0 mm
12:00 PM 3.5°F-15.8°C -2.9°F-19.4°C 74% 2.0 mph W3.2 kmh W -- 30.49 in1032.5 mb 0.00 in0.0 mm 0.00 in0.0 mm 0.00 in0.0 mm
12:05 PM 4.1°F-15.5°C -2.3°F-19.1°C 74% 4.0 mph NW6.4 kmh NW -- 30.49 in1032.5 mb 0.00 in0.0 mm 0.00 in0.0 mm 0.00 in0.0 mm
12:10 PM 4.3°F-15.4°C -2.4°F-19.1°C 73% 5.0 mph NNW8.0 kmh NNW -- 30.49 in1032.5 mb 0.00 in0.0 mm 0.00 in0.0 mm 0.00 in0.0 mm
12:15 PM 4.5°F-15.3°C -2.2°F-19.0°C 73% 2.0 mph NW3.2 kmh NW -- 30.49 in1032.5 mb 0.00 in0.0 mm 0.00 in0.0 mm 0.00 in0.0 mm
12:20 PM 4.8°F-15.1°C -2.2°F-19.0°C 72% 7.0 mph WNW11.3 kmh WNW -- 30.49 in1032.5 mb 0.00 in0.0 mm 0.00 in0.0 mm 0.00 in0.0 mm
12:25 PM 4.6°F-15.2°C -2.4°F-19.1°C 72% 6.0 mph NW9.7 kmh NW -- 30.48 in1032.2 mb 0.00 in0.0 mm 0.00 in0.0 mm 0.00 in0.0 mm
12:30 PM 4.8°F-15.1°C -2.2°F-19.0°C 72% 5.0 mph NW8.0 kmh NW -- 30.48 in1032.2 mb 0.00 in0.0 mm 0.00 in0.0 mm 0.00 in0.0 mm
12:35 PM 5.1°F-14.9°C -2.2°F-19.0°C 71% 4.0 mph NNW6.4 kmh NNW -- 30.48 in1032.2 mb 0.00 in0.0 mm 0.00 in0.0 mm 0.00 in0.0 mm
12:40 PM 5.4°F-14.8°C -1.9°F-18.8°C 71% 6.0 mph NW9.7 kmh NW 9.0 mph14.5 kmh 30.48 in1032.2 mb 0.00 in0.0 mm 0.00 in0.0 mm 0.00 in0.0 mm
12:45 PM 5.6°F-14.7°C -2.0°F-18.9°C 70% 4.0 mph WNW6.4 kmh WNW 9.0 mph14.5 kmh 30.48 in1032.2 mb 0.00 in0.0 mm 0.00 in0.0 mm 0.00 in0.0 mm
12:50 PM 5.7°F-14.6°C -1.9°F-18.8°C 70% 5.0 mph NW8.0 kmh NW -- 30.48 in1032.2 mb 0.00 in0.0 mm 0.00 in0.0 mm 0.00 in0.0 mm
12:55 PM 6.2°F-14.3°C -1.5°F-18.6°C 70% 6.0 mph NW9.7 kmh NW -- 30.48 in1032.2 mb 0.00 in0.0 mm 0.00 in0.0 mm 0.00 in0.0 mm
01:00 PM 6.2°F-14.3°C -1.8°F-18.8°C 69% 5.0 mph N8.0 kmh N -- 30.48 in1032.2 mb 0.00 in0.0 mm 0.00 in0.0 mm 0.00 in0.0 mm
01:05 PM 6.4°F-14.2°C -1.6°F-18.7°C 69% 3.0 mph NW4.8 kmh NW -- 30.47 in1031.8 mb 0.00 in0.0 mm 0.00 in0.0 mm 0.00 in0.0 mm
01:10 PM 6.6°F-14.1°C -1.1°F-18.4°C 70% 5.0 mph N8.0 kmh N -- 30.47 in1031.8 mb 0.00 in0.0 mm 0.00 in0.0 mm 0.00 in0.0 mm
01:15 PM 6.5°F-14.2°C -1.8°F-18.8°C 68% 6.0 mph NW9.7 kmh NW -- 30.47 in1031.8 mb 0.00 in0.0 mm 0.00 in0.0 mm 0.00 in0.0 mm
01:20 PM 6.6°F-14.1°C -1.7°F-18.7°C 68% 4.0 mph NW6.4 kmh NW -- 30.47 in1031.8 mb 0.00 in0.0 mm 0.00 in0.0 mm 0.00 in0.0 mm
01:25 PM 7.0°F-13.9°C -1.0°F-18.3°C 69% 6.0 mph NW9.7 kmh NW -- 30.47 in1031.8 mb 0.00 in0.0 mm 0.00 in0.0 mm 0.00 in0.0 mm
01:30 PM 7.0°F-13.9°C -1.3°F-18.5°C 68% 3.0 mph N4.8 kmh N 8.0 mph12.9 kmh 30.46 in1031.5 mb 0.00 in0.0 mm 0.00 in0.0 mm 0.00 in0.0 mm
01:35 PM 7.1°F-13.8°C -1.2°F-18.4°C 68% 5.0 mph W8.0 kmh W 8.0 mph12.9 kmh 30.46 in1031.5 mb 0.00 in0.0 mm 0.00 in0.0 mm 0.00 in0.0 mm
01:40 PM 7.3°F-13.7°C -1.3°F-18.5°C 67% 5.0 mph WNW8.0 kmh WNW -- 30.46 in1031.5 mb 0.00 in0.0 mm 0.00 in0.0 mm 0.00 in0.0 mm
01:45 PM 7.3°F-13.7°C -1.3°F-18.5°C 67% 7.0 mph NW11.3 kmh NW -- 30.46 in1031.5 mb 0.00 in0.0 mm 0.00 in0.0 mm 0.00 in0.0 mm
01:50 PM 7.3°F-13.7°C -1.6°F-18.7°C 66% 4.0 mph N6.4 kmh N -- 30.46 in1031.5 mb 0.00 in0.0 mm 0.00 in0.0 mm 0.00 in0.0 mm
01:55 PM 7.7°F-13.5°C -0.9°F-18.3°C 67% 3.0 mph WNW4.8 kmh WNW -- 30.46 in1031.5 mb 0.00 in0.0 mm 0.00 in0.0 mm 0.00 in0.0 mm
02:00 PM 7.9°F-13.4°C -0.7°F-18.2°C 67% 6.0 mph N9.7 kmh N -- 30.46 in1031.5 mb 0.00 in0.0 mm 0.00 in0.0 mm 0.00 in0.0 mm
02:05 PM 8.0°F-13.3°C -1.0°F-18.3°C 66% 7.0 mph NNW11.3 kmh NNW -- 30.46 in1031.5 mb 0.00 in0.0 mm 0.00 in0.0 mm 0.00 in0.0 mm
02:10 PM 8.2°F-13.2°C -0.8°F-18.2°C 66% 5.0 mph NNW8.0 kmh NNW -- 30.46 in1031.5 mb 0.00 in0.0 mm 0.00 in0.0 mm 0.00 in0.0 mm
02:15 PM 8.2°F-13.2°C -1.1°F-18.4°C 65% 5.0 mph WNW8.0 kmh WNW -- 30.46 in1031.5 mb 0.00 in0.0 mm 0.00 in0.0 mm 0.00 in0.0 mm
02:20 PM 8.2°F-13.2°C -1.1°F-18.4°C 65% 5.0 mph NW8.0 kmh NW 9.0 mph14.5 kmh 30.46 in1031.5 mb 0.00 in0.0 mm 0.00 in0.0 mm 0.00 in0.0 mm
02:25 PM 8.4°F-13.1°C -0.9°F-18.3°C 65% 3.0 mph NW4.8 kmh NW 9.0 mph14.5 kmh 30.46 in1031.5 mb 0.00 in0.0 mm 0.00 in0.0 mm 0.00 in0.0 mm
02:30 PM 7.6°F-13.6°C -2.0°F-18.9°C 64% 7.0 mph NW11.3 kmh NW -- 30.46 in1031.5 mb 0.00 in0.0 mm 0.00 in0.0 mm 0.00 in0.0 mm
02:35 PM 7.7°F-13.5°C -1.9°F-18.8°C 64% 2.0 mph NNW3.2 kmh NNW -- 30.46 in1031.5 mb 0.00 in0.0 mm 0.00 in0.0 mm 0.00 in0.0 mm
02:40 PM 7.8°F-13.4°C -1.8°F-18.8°C 64% 7.0 mph NW11.3 kmh NW -- 30.46 in1031.5 mb 0.00 in0.0 mm 0.00 in0.0 mm 0.00 in0.0 mm
02:45 PM 7.9°F-13.4°C -1.7°F-18.7°C 64% 7.0 mph NNW11.3 kmh NNW -- 30.46 in1031.5 mb 0.00 in0.0 mm 0.00 in0.0 mm 0.00 in0.0 mm
02:50 PM 8.0°F-13.3°C -1.6°F-18.7°C 64% 2.0 mph WNW3.2 kmh WNW -- 30.46 in1031.5 mb 0.00 in0.0 mm 0.00 in0.0 mm 0.00 in0.0 mm
02:55 PM 8.1°F-13.3°C -1.5°F-18.6°C 64% 11.0 mph NW17.7 kmh NW -- 30.46 in1031.5 mb 0.00 in0.0 mm 0.00 in0.0 mm 0.00 in0.0 mm
03:00 PM 8.1°F-13.3°C -1.9°F-18.8°C 63% 7.0 mph WNW11.3 kmh WNW -- 30.46 in1031.5 mb 0.00 in0.0 mm 0.00 in0.0 mm 0.00 in0.0 mm
03:05 PM 8.1°F-13.3°C -1.5°F-18.6°C 64% 4.0 mph W6.4 kmh W -- 30.46 in1031.5 mb 0.00 in0.0 mm 0.00 in0.0 mm 0.00 in0.0 mm
03:10 PM 8.1°F-13.3°C -1.9°F-18.8°C 63% 5.0 mph WNW8.0 kmh WNW 9.0 mph14.5 kmh 30.46 in1031.5 mb 0.00 in0.0 mm 0.00 in0.0 mm 0.00 in0.0 mm
03:15 PM 8.1°F-13.3°C -1.9°F-18.8°C 63% 9.0 mph WNW14.5 kmh WNW 9.0 mph14.5 kmh 30.46 in1031.5 mb 0.00 in0.0 mm 0.00 in0.0 mm 0.00 in0.0 mm
03:20 PM 8.2°F-13.2°C -1.4°F-18.6°C 64% 9.0 mph NW14.5 kmh NW -- 30.46 in1031.5 mb 0.00 in0.0 mm 0.00 in0.0 mm 0.00 in0.0 mm
03:25 PM 8.2°F-13.2°C -1.8°F-18.8°C 63% 4.0 mph NW6.4 kmh NW -- 30.45 in1031.2 mb 0.00 in0.0 mm 0.00 in0.0 mm 0.00 in0.0 mm
03:30 PM 8.3°F-13.2°C -1.7°F-18.7°C 63% 7.0 mph NW11.3 kmh NW -- 30.46 in1031.5 mb 0.00 in0.0 mm 0.00 in0.0 mm 0.00 in0.0 mm
03:35 PM 8.3°F-13.2°C -2.0°F-18.9°C 62% 6.0 mph NW9.7 kmh NW -- 30.45 in1031.2 mb 0.00 in0.0 mm 0.00 in0.0 mm 0.00 in0.0 mm
03:40 PM 8.3°F-13.2°C -2.0°F-18.9°C 62% 7.0 mph WNW11.3 kmh WNW -- 30.45 in1031.2 mb 0.00 in0.0 mm 0.00 in0.0 mm 0.00 in0.0 mm
03:45 PM 8.4°F-13.1°C -1.9°F-18.8°C 62% 5.0 mph NNW8.0 kmh NNW -- 30.46 in1031.5 mb 0.00 in0.0 mm 0.00 in0.0 mm 0.00 in0.0 mm
03:50 PM 8.4°F-13.1°C -1.6°F-18.7°C 63% 7.0 mph NW11.3 kmh NW -- 30.46 in1031.5 mb 0.00 in0.0 mm 0.00 in0.0 mm 0.00 in0.0 mm
03:55 PM 8.4°F-13.1°C -1.6°F-18.7°C 63% 4.0 mph NW6.4 kmh NW -- 30.46 in1031.5 mb 0.00 in0.0 mm 0.00 in0.0 mm 0.00 in0.0 mm
04:00 PM 8.4°F-13.1°C -1.9°F-18.8°C 62% 5.0 mph NNE8.0 kmh NNE 10.0 mph16.1 kmh 30.46 in1031.5 mb 0.00 in0.0 mm 0.00 in0.0 mm 0.00 in0.0 mm
04:05 PM 8.5°F-13.1°C -1.5°F-18.6°C 63% 3.0 mph WSW4.8 kmh WSW 10.0 mph16.1 kmh 30.46 in1031.5 mb 0.00 in0.0 mm 0.00 in0.0 mm 0.00 in0.0 mm
04:10 PM 8.5°F-13.1°C -1.8°F-18.8°C 62% 6.0 mph NW9.7 kmh NW -- 30.46 in1031.5 mb 0.00 in0.0 mm 0.00 in0.0 mm 0.00 in0.0 mm
04:15 PM 8.3°F-13.2°C -2.0°F-18.9°C 62% 5.0 mph NW8.0 kmh NW -- 30.46 in1031.5 mb 0.00 in0.0 mm 0.00 in0.0 mm 0.00 in0.0 mm
04:20 PM 9.2°F-12.7°C -0.8°F-18.2°C 63% 3.0 mph W4.8 kmh W -- 30.45 in1031.2 mb 0.00 in0.0 mm 0.00 in0.0 mm 0.00 in0.0 mm
04:25 PM 9.2°F-12.7°C -0.8°F-18.2°C 63% 4.0 mph NW6.4 kmh NW -- 30.45 in1031.2 mb 0.00 in0.0 mm 0.00 in0.0 mm 0.00 in0.0 mm
04:30 PM 9.0°F-12.8°C -1.0°F-18.3°C 63% 1.0 mph NW1.6 kmh NW -- 30.45 in1031.2 mb 0.00 in0.0 mm 0.00 in0.0 mm 0.00 in0.0 mm
04:35 PM 9.1°F-12.7°C -0.6°F-18.1°C 64% 1.0 mph NW1.6 kmh NW -- 30.45 in1031.2 mb 0.00 in0.0 mm 0.00 in0.0 mm 0.00 in0.0 mm
04:40 PM 9.1°F-12.7°C -0.9°F-18.3°C 63% 3.0 mph NW4.8 kmh NW -- 30.45 in1031.2 mb 0.00 in0.0 mm 0.00 in0.0 mm 0.00 in0.0 mm
04:45 PM 9.0°F-12.8°C -1.0°F-18.3°C 63% 1.0 mph NW1.6 kmh NW -- 30.46 in1031.5 mb 0.00 in0.0 mm 0.00 in0.0 mm 0.00 in0.0 mm
04:50 PM 9.0°F-12.8°C -0.7°F-18.2°C 64% 3.0 mph NW4.8 kmh NW 5.0 mph8.0 kmh 30.46 in1031.5 mb 0.00 in0.0 mm 0.00 in0.0 mm 0.00 in0.0 mm
04:55 PM 9.0°F-12.8°C -0.7°F-18.2°C 64% 2.0 mph NW3.2 kmh NW 5.0 mph8.0 kmh 30.46 in1031.5 mb 0.00 in0.0 mm 0.00 in0.0 mm 0.00 in0.0 mm
05:00 PM 8.9°F-12.8°C -0.8°F-18.2°C 64% 1.0 mph NW1.6 kmh NW -- 30.46 in1031.5 mb 0.00 in0.0 mm 0.00 in0.0 mm 0.00 in0.0 mm
05:05 PM 8.7°F-12.9°C -0.9°F-18.3°C 64% 2.0 mph NW3.2 kmh NW -- 30.46 in1031.5 mb 0.00 in0.0 mm 0.00 in0.0 mm 0.00 in0.0 mm
05:10 PM 8.7°F-12.9°C -0.9°F-18.3°C 64% 2.0 mph NW3.2 kmh NW -- 30.46 in1031.5 mb 0.00 in0.0 mm 0.00 in0.0 mm 0.00 in0.0 mm
05:15 PM 8.6°F-13.0°C -1.0°F-18.3°C 64% Calm Calm -- 30.46 in1031.5 mb 0.00 in0.0 mm 0.00 in0.0 mm 0.00 in0.0 mm
05:20 PM 8.4°F-13.1°C -1.2°F-18.4°C 64% 4.0 mph N6.4 kmh N -- 30.46 in1031.5 mb 0.00 in0.0 mm 0.00 in0.0 mm 0.00 in0.0 mm
05:25 PM 8.2°F-13.2°C -1.4°F-18.6°C 64% 4.0 mph NW6.4 kmh NW -- 30.46 in1031.5 mb 0.00 in0.0 mm 0.00 in0.0 mm 0.00 in0.0 mm
05:30 PM 8.1°F-13.3°C -1.5°F-18.6°C 64% 3.0 mph NW4.8 kmh NW -- 30.46 in1031.5 mb 0.00 in0.0 mm 0.00 in0.0 mm 0.00 in0.0 mm
05:35 PM 7.9°F-13.4°C -1.4°F-18.6°C 65% 1.0 mph NW1.6 kmh NW -- 30.46 in1031.5 mb 0.00 in0.0 mm 0.00 in0.0 mm 0.00 in0.0 mm
05:40 PM 7.7°F-13.5°C -1.6°F-18.7°C 65% 1.0 mph NW1.6 kmh NW 4.0 mph6.4 kmh 30.46 in1031.5 mb 0.00 in0.0 mm 0.00 in0.0 mm 0.00 in0.0 mm
05:45 PM 7.4°F-13.7°C -1.9°F-18.8°C 65% Calm Calm 4.0 mph6.4 kmh 30.46 in1031.5 mb 0.00 in0.0 mm 0.00 in0.0 mm 0.00 in0.0 mm
05:50 PM 7.2°F-13.8°C -1.7°F-18.7°C 66% Calm Calm -- 30.46 in1031.5 mb 0.00 in0.0 mm 0.00 in0.0 mm 0.00 in0.0 mm
05:55 PM 6.9°F-13.9°C -2.0°F-18.9°C 66% Calm Calm -- 30.46 in1031.5 mb 0.00 in0.0 mm 0.00 in0.0 mm 0.00 in0.0 mm
06:00 PM 6.6°F-14.1°C -2.0°F-18.9°C 67% Calm Calm -- 30.47 in1031.8 mb 0.00 in0.0 mm 0.00 in0.0 mm 0.00 in0.0 mm
06:05 PM 6.3°F-14.3°C -2.3°F-19.1°C 67% Calm Calm -- 30.47 in1031.8 mb 0.00 in0.0 mm 0.00 in0.0 mm 0.00 in0.0 mm
06:10 PM 6.1°F-14.4°C -2.2°F-19.0°C 68% Calm Calm -- 30.47 in1031.8 mb 0.00 in0.0 mm 0.00 in0.0 mm 0.00 in0.0 mm
06:15 PM 5.9°F-14.5°C -2.4°F-19.1°C 68% Calm Calm -- 30.47 in1031.8 mb 0.00 in0.0 mm 0.00 in0.0 mm 0.00 in0.0 mm
06:20 PM 5.6°F-14.7°C -2.6°F-19.2°C 68% Calm Calm -- 30.47 in1031.8 mb 0.00 in0.0 mm 0.00 in0.0 mm 0.00 in0.0 mm
06:25 PM 5.5°F-14.7°C -2.4°F-19.1°C 69% Calm Calm -- 30.47 in1031.8 mb 0.00 in0.0 mm 0.00 in0.0 mm 0.00 in0.0 mm
06:30 PM 5.4°F-14.8°C -2.5°F-19.2°C 69% 1.0 mph NW1.6 kmh NW 2.0 mph3.2 kmh 30.47 in1031.8 mb 0.00 in0.0 mm 0.00 in0.0 mm 0.00 in0.0 mm
06:35 PM 5.2°F-14.9°C -2.7°F-19.3°C 69% Calm Calm 2.0 mph3.2 kmh 30.47 in1031.8 mb 0.00 in0.0 mm 0.00 in0.0 mm 0.00 in0.0 mm
06:40 PM 4.9°F-15.1°C -3.0°F-19.4°C 69% 2.0 mph NW3.2 kmh NW -- 30.47 in1031.8 mb 0.00 in0.0 mm 0.00 in0.0 mm 0.00 in0.0 mm
06:45 PM 4.6°F-15.2°C -3.3°F-19.6°C 69% 3.0 mph NW4.8 kmh NW -- 30.47 in1031.8 mb 0.00 in0.0 mm 0.00 in0.0 mm 0.00 in0.0 mm
06:50 PM 4.6°F-15.2°C -3.0°F-19.4°C 70% 2.0 mph NW3.2 kmh NW -- 30.48 in1032.2 mb 0.00 in0.0 mm 0.00 in0.0 mm 0.00 in0.0 mm
06:55 PM 4.7°F-15.2°C -2.9°F-19.4°C 70% 1.0 mph NW1.6 kmh NW -- 30.48 in1032.2 mb 0.00 in0.0 mm 0.00 in0.0 mm 0.00 in0.0 mm
07:00 PM 4.7°F-15.2°C -2.9°F-19.4°C 70% Calm Calm -- 30.48 in1032.2 mb 0.00 in0.0 mm 0.00 in0.0 mm 0.00 in0.0 mm
07:05 PM 4.6°F-15.2°C -3.0°F-19.4°C 70% 1.0 mph NW1.6 kmh NW -- 30.48 in1032.2 mb 0.00 in0.0 mm 0.00 in0.0 mm 0.00 in0.0 mm
07:10 PM 4.4°F-15.3°C -3.2°F-19.6°C 70% 2.0 mph NW3.2 kmh NW -- 30.48 in1032.2 mb 0.00 in0.0 mm 0.00 in0.0 mm 0.00 in0.0 mm
07:15 PM 4.2°F-15.4°C -3.4°F-19.7°C 70% 1.0 mph NW1.6 kmh NW -- 30.48 in1032.2 mb 0.00 in0.0 mm 0.00 in0.0 mm 0.00 in0.0 mm
07:20 PM 4.2°F-15.4°C -3.4°F-19.7°C 70% 2.0 mph NW3.2 kmh NW 3.0 mph4.8 kmh 30.48 in1032.2 mb 0.00 in0.0 mm 0.00 in0.0 mm 0.00 in0.0 mm
07:25 PM 4.1°F-15.5°C -3.5°F-19.7°C 70% 2.0 mph NW3.2 kmh NW 3.0 mph4.8 kmh 30.48 in1032.2 mb 0.00 in0.0 mm 0.00 in0.0 mm 0.00 in0.0 mm
07:30 PM 3.8°F-15.7°C -3.8°F-19.9°C 70% 3.0 mph NW4.8 kmh NW -- 30.48 in1032.2 mb 0.00 in0.0 mm 0.00 in0.0 mm 0.00 in0.0 mm
07:35 PM 3.7°F-15.7°C -3.9°F-19.9°C 70% 2.0 mph NW3.2 kmh NW -- 30.48 in1032.2 mb 0.00 in0.0 mm 0.00 in0.0 mm 0.00 in0.0 mm
07:40 PM 3.6°F-15.8°C -4.0°F-20.0°C 70% 2.0 mph NW3.2 kmh NW -- 30.48 in1032.2 mb 0.00 in0.0 mm 0.00 in0.0 mm 0.00 in0.0 mm
07:45 PM 3.6°F-15.8°C -3.7°F-19.8°C 71% 3.0 mph NW4.8 kmh NW -- 30.48 in1032.2 mb 0.00 in0.0 mm 0.00 in0.0 mm 0.00 in0.0 mm
07:50 PM 3.4°F-15.9°C -3.9°F-19.9°C 71% 3.0 mph NW4.8 kmh NW -- 30.48 in1032.2 mb 0.00 in0.0 mm 0.00 in0.0 mm 0.00 in0.0 mm
07:55 PM 3.0°F-16.1°C -4.5°F-20.3°C 70% 2.0 mph NW3.2 kmh NW -- 30.48 in1032.2 mb 0.00 in0.0 mm 0.00 in0.0 mm 0.00 in0.0 mm
08:00 PM 2.6°F-16.3°C -4.6°F-20.3°C 71% Calm Calm -- 30.48 in1032.2 mb 0.00 in0.0 mm 0.00 in0.0 mm 0.00 in0.0 mm
08:05 PM 2.6°F-16.3°C -4.3°F-20.2°C 72% 2.0 mph NW3.2 kmh NW -- 30.48 in1032.2 mb 0.00 in0.0 mm 0.00 in0.0 mm 0.00 in0.0 mm
08:10 PM 2.2°F-16.6°C -4.7°F-20.4°C 72% 1.0 mph NW1.6 kmh NW 5.0 mph8.0 kmh 30.48 in1032.2 mb 0.00 in0.0 mm 0.00 in0.0 mm 0.00 in0.0 mm
08:15 PM 1.9°F-16.7°C -5.0°F-20.6°C 72% 2.0 mph NW3.2 kmh NW 5.0 mph8.0 kmh 30.48 in1032.2 mb 0.00 in0.0 mm 0.00 in0.0 mm 0.00 in0.0 mm
08:20 PM 2.3°F-16.5°C -4.3°F-20.2°C 73% 6.0 mph NW9.7 kmh NW -- 30.48 in1032.2 mb 0.00 in0.0 mm 0.00 in0.0 mm 0.00 in0.0 mm
08:25 PM 3.0°F-16.1°C -3.7°F-19.8°C 73% 4.0 mph NW6.4 kmh NW -- 30.48 in1032.2 mb 0.00 in0.0 mm 0.00 in0.0 mm 0.00 in0.0 mm
08:30 PM 3.3°F-15.9°C -3.7°F-19.8°C 72% 4.0 mph NW6.4 kmh NW -- 30.48 in1032.2 mb 0.00 in0.0 mm 0.00 in0.0 mm 0.00 in0.0 mm
08:35 PM 3.3°F-15.9°C -3.7°F-19.8°C 72% 4.0 mph NW6.4 kmh NW -- 30.48 in1032.2 mb 0.00 in0.0 mm 0.00 in0.0 mm 0.00 in0.0 mm
08:40 PM 3.2°F-16.0°C -3.8°F-19.9°C 72% 3.0 mph NW4.8 kmh NW -- 30.48 in1032.2 mb 0.00 in0.0 mm 0.00 in0.0 mm 0.00 in0.0 mm
08:45 PM 3.1°F-16.1°C -3.9°F-19.9°C 72% 6.0 mph NW9.7 kmh NW -- 30.48 in1032.2 mb 0.00 in0.0 mm 0.00 in0.0 mm 0.00 in0.0 mm
08:50 PM 3.1°F-16.1°C -3.9°F-19.9°C 72% 6.0 mph NW9.7 kmh NW -- 30.48 in1032.2 mb 0.00 in0.0 mm 0.00 in0.0 mm 0.00 in0.0 mm
08:55 PM 2.9°F-16.2°C -4.0°F-20.0°C 72% 3.0 mph NW4.8 kmh NW -- 30.48 in1032.2 mb 0.00 in0.0 mm 0.00 in0.0 mm 0.00 in0.0 mm
09:00 PM 2.8°F-16.2°C -4.1°F-20.1°C 72% 2.0 mph NW3.2 kmh NW 8.0 mph12.9 kmh 30.48 in1032.2 mb 0.00 in0.0 mm 0.00 in0.0 mm 0.00 in0.0 mm
09:05 PM 2.8°F-16.2°C -4.1°F-20.1°C 72% 2.0 mph NW3.2 kmh NW 8.0 mph12.9 kmh 30.48 in1032.2 mb 0.00 in0.0 mm 0.00 in0.0 mm 0.00 in0.0 mm
09:10 PM 2.5°F-16.4°C -4.4°F-20.2°C 72% 4.0 mph NW6.4 kmh NW -- 30.48 in1032.2 mb 0.00 in0.0 mm 0.00 in0.0 mm 0.00 in0.0 mm
09:15 PM 2.4°F-16.4°C -4.2°F-20.1°C 73% 4.0 mph NW6.4 kmh NW -- 30.48 in1032.2 mb 0.00 in0.0 mm 0.00 in0.0 mm 0.00 in0.0 mm
09:20 PM 2.3°F-16.5°C -4.3°F-20.2°C 73% 3.0 mph WNW4.8 kmh WNW -- 30.48 in1032.2 mb 0.00 in0.0 mm 0.00 in0.0 mm 0.00 in0.0 mm
09:25 PM 2.2°F-16.6°C -4.4°F-20.2°C 73% 4.0 mph NW6.4 kmh NW -- 30.48 in1032.2 mb 0.00 in0.0 mm 0.00 in0.0 mm 0.00 in0.0 mm
09:30 PM 2.2°F-16.6°C -4.4°F-20.2°C 73% 3.0 mph NW4.8 kmh NW -- 30.48 in1032.2 mb 0.00 in0.0 mm 0.00 in0.0 mm 0.00 in0.0 mm
09:35 PM 2.2°F-16.6°C -4.4°F-20.2°C 73% 3.0 mph NW4.8 kmh NW -- 30.48 in1032.2 mb 0.00 in0.0 mm 0.00 in0.0 mm 0.00 in0.0 mm
09:40 PM 2.0°F-16.7°C -4.6°F-20.3°C 73% 4.0 mph NW6.4 kmh NW -- 30.48 in1032.2 mb 0.00 in0.0 mm 0.00 in0.0 mm 0.00 in0.0 mm
09:45 PM 2.1°F-16.6°C -4.3°F-20.2°C 74% 3.0 mph NW4.8 kmh NW -- 30.48 in1032.2 mb 0.00 in0.0 mm 0.00 in0.0 mm 0.00 in0.0 mm
09:50 PM 2.0°F-16.7°C -4.3°F-20.2°C 74% 5.0 mph NW8.0 kmh NW 9.0 mph14.5 kmh 30.48 in1032.2 mb 0.00 in0.0 mm 0.00 in0.0 mm 0.00 in0.0 mm
09:55 PM 1.9°F-16.7°C -4.4°F-20.2°C 74% 3.0 mph WNW4.8 kmh WNW 9.0 mph14.5 kmh 30.48 in1032.2 mb 0.00 in0.0 mm 0.00 in0.0 mm 0.00 in0.0 mm
10:00 PM 1.9°F-16.7°C -4.4°F-20.2°C 74% 5.0 mph WNW8.0 kmh WNW -- 30.48 in1032.2 mb 0.00 in0.0 mm 0.00 in0.0 mm 0.00 in0.0 mm
10:05 PM 1.8°F-16.8°C -4.5°F-20.3°C 74% 5.0 mph NW8.0 kmh NW -- 30.48 in1032.2 mb 0.00 in0.0 mm 0.00 in0.0 mm 0.00 in0.0 mm
10:10 PM 1.8°F-16.8°C -4.5°F-20.3°C 74% 6.0 mph NNW9.7 kmh NNW -- 30.48 in1032.2 mb 0.00 in0.0 mm 0.00 in0.0 mm 0.00 in0.0 mm
10:15 PM 1.8°F-16.8°C -4.5°F-20.3°C 74% 4.0 mph NW6.4 kmh NW -- 30.48 in1032.2 mb 0.00 in0.0 mm 0.00 in0.0 mm 0.00 in0.0 mm
10:20 PM 1.7°F-16.8°C -4.6°F-20.3°C 74% 5.0 mph WNW8.0 kmh WNW -- 30.48 in1032.2 mb 0.00 in0.0 mm 0.00 in0.0 mm 0.00 in0.0 mm
10:25 PM 1.5°F-16.9°C -4.8°F-20.4°C 74% 5.0 mph NW8.0 kmh NW -- 30.48 in1032.2 mb 0.00 in0.0 mm 0.00 in0.0 mm 0.00 in0.0 mm
10:30 PM 1.4°F-17.0°C -4.9°F-20.5°C 74% 4.0 mph NW6.4 kmh NW -- 30.48 in1032.2 mb 0.00 in0.0 mm 0.00 in0.0 mm 0.00 in0.0 mm
10:35 PM 1.3°F-17.1°C -4.7°F-20.4°C 75% 7.0 mph NW11.3 kmh NW -- 30.48 in1032.2 mb 0.00 in0.0 mm 0.00 in0.0 mm 0.00 in0.0 mm
10:40 PM 1.3°F-17.1°C -4.7°F-20.4°C 75% 4.0 mph WNW6.4 kmh WNW 9.0 mph14.5 kmh 30.48 in1032.2 mb 0.00 in0.0 mm 0.00 in0.0 mm 0.00 in0.0 mm
10:45 PM 1.2°F-17.1°C -4.8°F-20.4°C 75% 3.0 mph NW4.8 kmh NW 9.0 mph14.5 kmh 30.48 in1032.2 mb 0.00 in0.0 mm 0.00 in0.0 mm 0.00 in0.0 mm
10:50 PM 1.1°F-17.2°C -4.9°F-20.5°C 75% 5.0 mph NW8.0 kmh NW -- 30.48 in1032.2 mb 0.00 in0.0 mm 0.00 in0.0 mm 0.00 in0.0 mm
10:55 PM 1.0°F-17.2°C -5.0°F-20.6°C 75% 3.0 mph NW4.8 kmh NW -- 30.48 in1032.2 mb 0.00 in0.0 mm 0.00 in0.0 mm 0.00 in0.0 mm
11:00 PM 0.9°F-17.3°C -5.1°F-20.6°C 75% 5.0 mph WNW8.0 kmh WNW -- 30.48 in1032.2 mb 0.00 in0.0 mm 0.00 in0.0 mm 0.00 in0.0 mm
11:05 PM 0.9°F-17.3°C -4.9°F-20.5°C 76% 2.0 mph WNW3.2 kmh WNW -- 30.48 in1032.2 mb 0.00 in0.0 mm 0.00 in0.0 mm 0.00 in0.0 mm
11:10 PM 0.9°F-17.3°C -4.9°F-20.5°C 76% 6.0 mph NW9.7 kmh NW -- 30.48 in1032.2 mb 0.00 in0.0 mm 0.00 in0.0 mm 0.00 in0.0 mm
11:15 PM 0.8°F-17.3°C -5.0°F-20.6°C 76% 3.0 mph NW4.8 kmh NW -- 30.48 in1032.2 mb 0.00 in0.0 mm 0.00 in0.0 mm 0.00 in0.0 mm
11:20 PM 0.7°F-17.4°C -5.1°F-20.6°C 76% 4.0 mph NW6.4 kmh NW -- 30.48 in1032.2 mb 0.00 in0.0 mm 0.00 in0.0 mm 0.00 in0.0 mm
11:25 PM 0.6°F-17.4°C -5.2°F-20.7°C 76% 4.0 mph NW6.4 kmh NW -- 30.49 in1032.5 mb 0.00 in0.0 mm 0.00 in0.0 mm 0.00 in0.0 mm
11:30 PM 0.5°F-17.5°C -5.3°F-20.7°C 76% 4.0 mph NW6.4 kmh NW 6.0 mph9.7 kmh 30.49 in1032.5 mb 0.00 in0.0 mm 0.00 in0.0 mm 0.00 in0.0 mm
11:35 PM 0.4°F-17.6°C -5.3°F-20.7°C 76% 4.0 mph NW6.4 kmh NW 6.0 mph9.7 kmh 30.49 in1032.5 mb 0.00 in0.0 mm 0.00 in0.0 mm 0.00 in0.0 mm
11:40 PM 0.3°F-17.6°C -5.4°F-20.8°C 76% 3.0 mph NW4.8 kmh NW -- 30.49 in1032.5 mb 0.00 in0.0 mm 0.00 in0.0 mm 0.00 in0.0 mm
11:45 PM 0.2°F-17.7°C -5.5°F-20.8°C 76% 3.0 mph NW4.8 kmh NW -- 30.49 in1032.5 mb 0.00 in0.0 mm 0.00 in0.0 mm 0.00 in0.0 mm
11:50 PM 0.2°F-17.7°C -5.5°F-20.8°C 76% 4.0 mph WNW6.4 kmh WNW -- 30.49 in1032.5 mb 0.00 in0.0 mm 0.00 in0.0 mm 0.00 in0.0 mm
11:55 PM 0.0°F-17.8°C -5.7°F-20.9°C 76% 2.0 mph WNW3.2 kmh WNW -- 30.49 in1032.5 mb 0.00 in0.0 mm 0.00 in0.0 mm 0.00 in0.0 mm